sensor_id;sensor_type;location;lat;lon;timestamp;temperature;humidity
4103;DHT22;2065;49.790;9.620;2023-06-14T00:00:48;22.80;37.20
4103;DHT22;2065;49.790;9.620;2023-06-14T00:03:15;22.80;37.10
4103;DHT22;2065;49.790;9.620;2023-06-14T00:05:43;22.80;36.70
4103;DHT22;2065;49.790;9.620;2023-06-14T00:08:12;22.70;36.80
4103;DHT22;2065;49.790;9.620;2023-06-14T00:10:39;22.70;37.20
4103;DHT22;2065;49.790;9.620;2023-06-14T00:13:09;22.60;37.00
4103;DHT22;2065;49.790;9.620;2023-06-14T00:15:36;22.50;37.10
4103;DHT22;2065;49.790;9.620;2023-06-14T00:18:03;22.40;36.70
4103;DHT22;2065;49.790;9.620;2023-06-14T00:20:32;22.30;37.30
4103;DHT22;2065;49.790;9.620;2023-06-14T00:22:59;22.20;38.10
4103;DHT22;2065;49.790;9.620;2023-06-14T00:25:26;22.20;39.70
4103;DHT22;2065;49.790;9.620;2023-06-14T00:27:54;22.20;39.50
4103;DHT22;2065;49.790;9.620;2023-06-14T00:30:23;22.20;40.10
4103;DHT22;2065;49.790;9.620;2023-06-14T00:32:50;22.20;40.60
4103;DHT22;2065;49.790;9.620;2023-06-14T00:35:17;22.20;40.70
4103;DHT22;2065;49.790;9.620;2023-06-14T00:37:44;22.20;40.80
4103;DHT22;2065;49.790;9.620;2023-06-14T00:40:11;22.20;40.80
4103;DHT22;2065;49.790;9.620;2023-06-14T00:42:38;22.20;40.80
4103;DHT22;2065;49.790;9.620;2023-06-14T00:45:06;22.20;40.80
4103;DHT22;2065;49.790;9.620;2023-06-14T00:47:35;22.10;40.30
4103;DHT22;2065;49.790;9.620;2023-06-14T00:50:06;22.10;40.40
4103;DHT22;2065;49.790;9.620;2023-06-14T00:52:34;22.10;41.10
4103;DHT22;2065;49.790;9.620;2023-06-14T00:55:01;22.00;41.00
4103;DHT22;2065;49.790;9.620;2023-06-14T00:57:29;22.00;41.10
4103;DHT22;2065;49.790;9.620;2023-06-14T00:59:56;21.90;41.00
4103;DHT22;2065;49.790;9.620;2023-06-14T01:02:24;21.90;41.10
4103;DHT22;2065;49.790;9.620;2023-06-14T01:04:53;21.80;41.50
4103;DHT22;2065;49.790;9.620;2023-06-14T01:07:28;21.80;41.50
4103;DHT22;2065;49.790;9.620;2023-06-14T01:10:11;21.70;42.30
4103;DHT22;2065;49.790;9.620;2023-06-14T01:12:47;21.70;41.30
4103;DHT22;2065;49.790;9.620;2023-06-14T01:15:17;21.70;41.50
4103;DHT22;2065;49.790;9.620;2023-06-14T01:17:45;21.70;41.90
4103;DHT22;2065;49.790;9.620;2023-06-14T01:20:15;21.70;41.80
4103;DHT22;2065;49.790;9.620;2023-06-14T01:22:50;21.60;41.70
4103;DHT22;2065;49.790;9.620;2023-06-14T01:25:18;21.60;42.20
4103;DHT22;2065;49.790;9.620;2023-06-14T01:27:47;21.50;41.90
4103;DHT22;2065;49.790;9.620;2023-06-14T01:30:15;21.50;41.20
4103;DHT22;2065;49.790;9.620;2023-06-14T01:32:44;21.50;41.40
4103;DHT22;2065;49.790;9.620;2023-06-14T01:35:11;21.30;41.00
4103;DHT22;2065;49.790;9.620;2023-06-14T01:37:39;21.30;41.60
4103;DHT22;2065;49.790;9.620;2023-06-14T01:40:10;21.30;41.70
4103;DHT22;2065;49.790;9.620;2023-06-14T01:42:38;21.30;41.30
4103;DHT22;2065;49.790;9.620;2023-06-14T01:45:07;21.30;41.00
4103;DHT22;2065;49.790;9.620;2023-06-14T01:47:35;21.30;41.10
4103;DHT22;2065;49.790;9.620;2023-06-14T01:50:03;21.30;41.00
4103;DHT22;2065;49.790;9.620;2023-06-14T01:52:30;21.20;40.00
4103;DHT22;2065;49.790;9.620;2023-06-14T01:54:57;21.10;40.80
4103;DHT22;2065;49.790;9.620;2023-06-14T01:57:31;21.10;41.20
4103;DHT22;2065;49.790;9.620;2023-06-14T01:59:59;21.20;41.30
4103;DHT22;2065;49.790;9.620;2023-06-14T02:02:26;21.10;41.30
4103;DHT22;2065;49.790;9.620;2023-06-14T02:04:53;21.10;41.20
4103;DHT22;2065;49.790;9.620;2023-06-14T02:07:23;21.10;41.30
4103;DHT22;2065;49.790;9.620;2023-06-14T02:09:51;21.10;41.40
4103;DHT22;2065;49.790;9.620;2023-06-14T02:12:18;21.10;41.80
4103;DHT22;2065;49.790;9.620;2023-06-14T02:14:46;21.10;41.80
4103;DHT22;2065;49.790;9.620;2023-06-14T02:17:14;21.00;41.70
4103;DHT22;2065;49.790;9.620;2023-06-14T02:19:41;21.00;42.00
4103;DHT22;2065;49.790;9.620;2023-06-14T02:22:09;21.00;42.50
4103;DHT22;2065;49.790;9.620;2023-06-14T02:24:36;20.90;42.20
4103;DHT22;2065;49.790;9.620;2023-06-14T02:27:06;20.90;42.50
4103;DHT22;2065;49.790;9.620;2023-06-14T02:29:36;20.90;43.10
4103;DHT22;2065;49.790;9.620;2023-06-14T02:32:05;20.80;42.90
4103;DHT22;2065;49.790;9.620;2023-06-14T02:34:33;20.70;43.00
4103;DHT22;2065;49.790;9.620;2023-06-14T02:37:00;20.70;43.10
4103;DHT22;2065;49.790;9.620;2023-06-14T02:39:28;20.70;43.40
4103;DHT22;2065;49.790;9.620;2023-06-14T02:41:55;20.60;42.70
4103;DHT22;2065;49.790;9.620;2023-06-14T02:44:24;20.50;42.90
4103;DHT22;2065;49.790;9.620;2023-06-14T02:46:52;20.50;42.80
4103;DHT22;2065;49.790;9.620;2023-06-14T02:49:21;20.20;42.40
4103;DHT22;2065;49.790;9.620;2023-06-14T02:51:48;20.20;43.40
4103;DHT22;2065;49.790;9.620;2023-06-14T02:54:15;20.20;42.20
4103;DHT22;2065;49.790;9.620;2023-06-14T02:56:43;20.20;43.10
4103;DHT22;2065;49.790;9.620;2023-06-14T02:59:10;20.20;41.80
4103;DHT22;2065;49.790;9.620;2023-06-14T03:01:38;20.20;42.30
4103;DHT22;2065;49.790;9.620;2023-06-14T03:04:08;20.20;42.40
4103;DHT22;2065;49.790;9.620;2023-06-14T03:06:39;20.20;41.20
4103;DHT22;2065;49.790;9.620;2023-06-14T03:09:07;20.00;41.70
4103;DHT22;2065;49.790;9.620;2023-06-14T03:11:36;20.00;41.70
4103;DHT22;2065;49.790;9.620;2023-06-14T03:14:04;20.00;41.30
4103;DHT22;2065;49.790;9.620;2023-06-14T03:16:32;20.00;41.60
4103;DHT22;2065;49.790;9.620;2023-06-14T03:19:00;20.00;42.30
4103;DHT22;2065;49.790;9.620;2023-06-14T03:21:30;20.10;42.30
4103;DHT22;2065;49.790;9.620;2023-06-14T03:24:01;20.20;42.70
4103;DHT22;2065;49.790;9.620;2023-06-14T03:26:29;20.20;42.70
4103;DHT22;2065;49.790;9.620;2023-06-14T03:28:58;20.20;42.80
4103;DHT22;2065;49.790;9.620;2023-06-14T03:31:31;20.20;43.20
4103;DHT22;2065;49.790;9.620;2023-06-14T03:34:00;20.30;42.80
4103;DHT22;2065;49.790;9.620;2023-06-14T03:36:28;20.30;43.20
4103;DHT22;2065;49.790;9.620;2023-06-14T03:38:54;20.20;43.50
4103;DHT22;2065;49.790;9.620;2023-06-14T03:41:23;20.20;42.70
4103;DHT22;2065;49.790;9.620;2023-06-14T03:43:52;20.20;42.80
4103;DHT22;2065;49.790;9.620;2023-06-14T03:46:19;20.20;42.50
4103;DHT22;2065;49.790;9.620;2023-06-14T03:48:46;20.20;41.70
4103;DHT22;2065;49.790;9.620;2023-06-14T03:51:13;20.10;42.10
4103;DHT22;2065;49.790;9.620;2023-06-14T03:53:40;20.10;42.60
4103;DHT22;2065;49.790;9.620;2023-06-14T03:56:07;20.20;43.00
4103;DHT22;2065;49.790;9.620;2023-06-14T03:58:41;20.20;42.70
4103;DHT22;2065;49.790;9.620;2023-06-14T04:01:08;20.20;43.20
4103;DHT22;2065;49.790;9.620;2023-06-14T04:03:35;20.20;43.40
4103;DHT22;2065;49.790;9.620;2023-06-14T04:06:04;20.30;43.80
4103;DHT22;2065;49.790;9.620;2023-06-14T04:08:31;20.20;44.00
4103;DHT22;2065;49.790;9.620;2023-06-14T04:10:58;20.30;44.10
4103;DHT22;2065;49.790;9.620;2023-06-14T04:13:25;20.20;45.00
4103;DHT22;2065;49.790;9.620;2023-06-14T04:15:53;20.20;45.10
4103;DHT22;2065;49.790;9.620;2023-06-14T04:18:26;20.20;44.40
4103;DHT22;2065;49.790;9.620;2023-06-14T04:20:53;20.20;44.00
4103;DHT22;2065;49.790;9.620;2023-06-14T04:23:22;20.10;43.40
4103;DHT22;2065;49.790;9.620;2023-06-14T04:25:49;20.10;43.20
4103;DHT22;2065;49.790;9.620;2023-06-14T04:28:17;20.00;42.00
4103;DHT22;2065;49.790;9.620;2023-06-14T04:30:44;19.80;44.20
4103;DHT22;2065;49.790;9.620;2023-06-14T04:33:15;19.90;45.50
4103;DHT22;2065;49.790;9.620;2023-06-14T04:35:43;20.00;45.80
4103;DHT22;2065;49.790;9.620;2023-06-14T04:38:13;20.10;45.70
4103;DHT22;2065;49.790;9.620;2023-06-14T04:40:42;20.10;45.40
4103;DHT22;2065;49.790;9.620;2023-06-14T04:43:11;20.20;45.60
4103;DHT22;2065;49.790;9.620;2023-06-14T04:45:40;20.20;45.50
4103;DHT22;2065;49.790;9.620;2023-06-14T04:48:10;20.30;45.50
4103;DHT22;2065;49.790;9.620;2023-06-14T04:50:40;20.30;45.40
4103;DHT22;2065;49.790;9.620;2023-06-14T04:53:09;20.30;45.20
4103;DHT22;2065;49.790;9.620;2023-06-14T04:55:37;20.40;45.00
4103;DHT22;2065;49.790;9.620;2023-06-14T04:58:04;20.40;45.00
4103;DHT22;2065;49.790;9.620;2023-06-14T05:00:32;20.40;45.10
4103;DHT22;2065;49.790;9.620;2023-06-14T05:02:58;20.40;45.20
4103;DHT22;2065;49.790;9.620;2023-06-14T05:05:27;20.50;44.50
4103;DHT22;2065;49.790;9.620;2023-06-14T05:07:55;20.50;44.10
4103;DHT22;2065;49.790;9.620;2023-06-14T05:10:22;20.50;44.10
4103;DHT22;2065;49.790;9.620;2023-06-14T05:12:49;20.50;44.60
4103;DHT22;2065;49.790;9.620;2023-06-14T05:15:18;20.60;45.40
4103;DHT22;2065;49.790;9.620;2023-06-14T05:17:46;20.60;45.40
4103;DHT22;2065;49.790;9.620;2023-06-14T05:20:20;20.60;44.10
4103;DHT22;2065;49.790;9.620;2023-06-14T05:22:48;20.50;44.60
4103;DHT22;2065;49.790;9.620;2023-06-14T05:25:18;20.50;45.20
4103;DHT22;2065;49.790;9.620;2023-06-14T05:27:45;20.60;45.00
4103;DHT22;2065;49.790;9.620;2023-06-14T05:30:13;20.40;43.20
4103;DHT22;2065;49.790;9.620;2023-06-14T05:32:40;20.30;44.10
4103;DHT22;2065;49.790;9.620;2023-06-14T05:35:08;20.50;44.20
4103;DHT22;2065;49.790;9.620;2023-06-14T05:37:36;20.50;44.00
4103;DHT22;2065;49.790;9.620;2023-06-14T05:40:04;20.50;43.90
4103;DHT22;2065;49.790;9.620;2023-06-14T05:42:33;20.60;43.70
4103;DHT22;2065;49.790;9.620;2023-06-14T05:45:00;20.70;44.00
4103;DHT22;2065;49.790;9.620;2023-06-14T05:47:27;20.90;44.50
4103;DHT22;2065;49.790;9.620;2023-06-14T05:49:54;20.90;42.90
4103;DHT22;2065;49.790;9.620;2023-06-14T05:52:21;20.70;43.00
4103;DHT22;2065;49.790;9.620;2023-06-14T05:54:48;20.90;43.20
4103;DHT22;2065;49.790;9.620;2023-06-14T05:57:15;21.00;43.20
4103;DHT22;2065;49.790;9.620;2023-06-14T05:59:43;21.10;43.10
4103;DHT22;2065;49.790;9.620;2023-06-14T06:02:10;21.10;43.00
4103;DHT22;2065;49.790;9.620;2023-06-14T06:04:37;21.10;43.20
4103;DHT22;2065;49.790;9.620;2023-06-14T06:07:04;21.20;42.70
4103;DHT22;2065;49.790;9.620;2023-06-14T06:09:32;21.40;41.80
4103;DHT22;2065;49.790;9.620;2023-06-14T06:11:59;21.70;42.70
4103;DHT22;2065;49.790;9.620;2023-06-14T06:14:26;22.00;41.60
4103;DHT22;2065;49.790;9.620;2023-06-14T06:16:55;22.20;41.10
4103;DHT22;2065;49.790;9.620;2023-06-14T06:19:22;22.10;40.60
4103;DHT22;2065;49.790;9.620;2023-06-14T06:21:49;22.20;40.90
4103;DHT22;2065;49.790;9.620;2023-06-14T06:24:16;22.20;40.50
4103;DHT22;2065;49.790;9.620;2023-06-14T06:26:42;22.20;40.40
4103;DHT22;2065;49.790;9.620;2023-06-14T06:29:09;22.30;40.50
4103;DHT22;2065;49.790;9.620;2023-06-14T06:31:37;22.30;40.70
4103;DHT22;2065;49.790;9.620;2023-06-14T06:34:05;22.50;41.70
4103;DHT22;2065;49.790;9.620;2023-06-14T06:36:32;22.90;40.90
4103;DHT22;2065;49.790;9.620;2023-06-14T06:38:59;22.70;40.40
4103;DHT22;2065;49.790;9.620;2023-06-14T06:41:26;22.90;40.90
4103;DHT22;2065;49.790;9.620;2023-06-14T06:43:53;23.00;39.60
4103;DHT22;2065;49.790;9.620;2023-06-14T06:46:21;23.20;40.00
4103;DHT22;2065;49.790;9.620;2023-06-14T06:48:48;23.20;39.70
4103;DHT22;2065;49.790;9.620;2023-06-14T06:51:16;23.00;39.90
4103;DHT22;2065;49.790;9.620;2023-06-14T06:53:43;23.00;40.20
4103;DHT22;2065;49.790;9.620;2023-06-14T06:56:10;23.00;39.90
4103;DHT22;2065;49.790;9.620;2023-06-14T06:58:37;23.20;40.50
4103;DHT22;2065;49.790;9.620;2023-06-14T07:01:04;23.20;39.50
4103;DHT22;2065;49.790;9.620;2023-06-14T07:03:32;23.20;40.70
4103;DHT22;2065;49.790;9.620;2023-06-14T07:05:58;23.30;40.50
4103;DHT22;2065;49.790;9.620;2023-06-14T07:08:27;23.60;40.30
4103;DHT22;2065;49.790;9.620;2023-06-14T07:10:54;23.80;39.30
4103;DHT22;2065;49.790;9.620;2023-06-14T07:13:21;23.60;39.70
4103;DHT22;2065;49.790;9.620;2023-06-14T07:15:48;23.60;39.80
4103;DHT22;2065;49.790;9.620;2023-06-14T07:18:14;23.60;39.50
4103;DHT22;2065;49.790;9.620;2023-06-14T07:20:42;23.50;39.50
4103;DHT22;2065;49.790;9.620;2023-06-14T07:23:09;23.60;38.70
4103;DHT22;2065;49.790;9.620;2023-06-14T07:25:38;23.60;38.70
4103;DHT22;2065;49.790;9.620;2023-06-14T07:28:05;23.60;39.00
4103;DHT22;2065;49.790;9.620;2023-06-14T07:30:32;23.80;39.10
4103;DHT22;2065;49.790;9.620;2023-06-14T07:33:00;24.00;38.30
4103;DHT22;2065;49.790;9.620;2023-06-14T07:35:27;24.10;38.20
4103;DHT22;2065;49.790;9.620;2023-06-14T07:37:53;24.30;37.80
4103;DHT22;2065;49.790;9.620;2023-06-14T07:40:21;24.20;38.50
4103;DHT22;2065;49.790;9.620;2023-06-14T07:42:49;24.40;38.10
4103;DHT22;2065;49.790;9.620;2023-06-14T07:45:17;24.20;38.00
4103;DHT22;2065;49.790;9.620;2023-06-14T07:47:45;24.10;37.80
4103;DHT22;2065;49.790;9.620;2023-06-14T07:50:12;23.90;38.20
4103;DHT22;2065;49.790;9.620;2023-06-14T07:52:39;24.00;38.10
4103;DHT22;2065;49.790;9.620;2023-06-14T07:55:07;23.90;38.30
4103;DHT22;2065;49.790;9.620;2023-06-14T07:57:34;23.80;37.90
4103;DHT22;2065;49.790;9.620;2023-06-14T08:00:03;24.10;38.70
4103;DHT22;2065;49.790;9.620;2023-06-14T08:02:37;24.30;38.00
4103;DHT22;2065;49.790;9.620;2023-06-14T08:05:05;24.40;38.60
4103;DHT22;2065;49.790;9.620;2023-06-14T08:07:32;24.50;37.30
4103;DHT22;2065;49.790;9.620;2023-06-14T08:09:59;24.70;38.00
4103;DHT22;2065;49.790;9.620;2023-06-14T08:12:26;24.70;37.20
4103;DHT22;2065;49.790;9.620;2023-06-14T08:14:53;24.80;36.70
4103;DHT22;2065;49.790;9.620;2023-06-14T08:17:21;24.80;36.50
4103;DHT22;2065;49.790;9.620;2023-06-14T08:19:48;24.60;37.70
4103;DHT22;2065;49.790;9.620;2023-06-14T08:22:15;24.90;37.20
4103;DHT22;2065;49.790;9.620;2023-06-14T08:24:43;25.10;37.00
4103;DHT22;2065;49.790;9.620;2023-06-14T08:27:11;25.00;35.60
4103;DHT22;2065;49.790;9.620;2023-06-14T08:29:39;25.20;36.30
4103;DHT22;2065;49.790;9.620;2023-06-14T08:32:07;25.20;36.80
4103;DHT22;2065;49.790;9.620;2023-06-14T08:34:35;25.30;35.60
4103;DHT22;2065;49.790;9.620;2023-06-14T08:37:03;25.70;35.20
4103;DHT22;2065;49.790;9.620;2023-06-14T08:39:30;25.90;34.50
4103;DHT22;2065;49.790;9.620;2023-06-14T08:41:58;26.00;34.20
4103;DHT22;2065;49.790;9.620;2023-06-14T08:44:28;26.00;34.10
4103;DHT22;2065;49.790;9.620;2023-06-14T08:46:56;25.70;33.80
4103;DHT22;2065;49.790;9.620;2023-06-14T08:49:25;25.70;34.60
4103;DHT22;2065;49.790;9.620;2023-06-14T08:51:57;25.70;34.30
4103;DHT22;2065;49.790;9.620;2023-06-14T08:54:25;25.80;33.90
4103;DHT22;2065;49.790;9.620;2023-06-14T08:56:53;26.10;34.10
4103;DHT22;2065;49.790;9.620;2023-06-14T08:59:24;26.40;34.00
4103;DHT22;2065;49.790;9.620;2023-06-14T09:01:51;26.60;33.40
4103;DHT22;2065;49.790;9.620;2023-06-14T09:04:20;26.90;32.90
4103;DHT22;2065;49.790;9.620;2023-06-14T09:06:47;27.10;33.00
4103;DHT22;2065;49.790;9.620;2023-06-14T09:09:20;26.90;32.50
4103;DHT22;2065;49.790;9.620;2023-06-14T09:11:49;26.80;34.20
4103;DHT22;2065;49.790;9.620;2023-06-14T09:16:43;26.80;32.40
4103;DHT22;2065;49.790;9.620;2023-06-14T09:19:14;26.90;32.70
4103;DHT22;2065;49.790;9.620;2023-06-14T09:21:47;27.10;31.30
4103;DHT22;2065;49.790;9.620;2023-06-14T09:24:15;27.20;31.90
4103;DHT22;2065;49.790;9.620;2023-06-14T09:26:43;27.50;31.90
4103;DHT22;2065;49.790;9.620;2023-06-14T09:29:13;27.80;30.70
4103;DHT22;2065;49.790;9.620;2023-06-14T09:31:40;28.10;30.80
4103;DHT22;2065;49.790;9.620;2023-06-14T09:34:09;27.80;30.60
4103;DHT22;2065;49.790;9.620;2023-06-14T09:36:36;27.60;30.50
4103;DHT22;2065;49.790;9.620;2023-06-14T09:39:03;27.40;31.80
4103;DHT22;2065;49.790;9.620;2023-06-14T09:41:32;27.50;30.70
4103;DHT22;2065;49.790;9.620;2023-06-14T09:44:02;27.60;30.90
4103;DHT22;2065;49.790;9.620;2023-06-14T09:46:29;27.80;30.60
4103;DHT22;2065;49.790;9.620;2023-06-14T09:48:57;28.00;30.10
4103;DHT22;2065;49.790;9.620;2023-06-14T09:51:24;28.00;29.80
4103;DHT22;2065;49.790;9.620;2023-06-14T09:53:52;27.70;30.10
4103;DHT22;2065;49.790;9.620;2023-06-14T09:56:23;27.50;30.10
4103;DHT22;2065;49.790;9.620;2023-06-14T09:58:55;27.40;30.90
4103;DHT22;2065;49.790;9.620;2023-06-14T10:01:24;27.80;31.00
4103;DHT22;2065;49.790;9.620;2023-06-14T10:03:55;28.00;29.60
4103;DHT22;2065;49.790;9.620;2023-06-14T10:06:25;28.30;29.80
4103;DHT22;2065;49.790;9.620;2023-06-14T10:08:56;28.40;30.30
4103;DHT22;2065;49.790;9.620;2023-06-14T10:11:26;28.60;28.80
4103;DHT22;2065;49.790;9.620;2023-06-14T10:13:53;28.90;30.00
4103;DHT22;2065;49.790;9.620;2023-06-14T10:16:27;29.00;29.30
4103;DHT22;2065;49.790;9.620;2023-06-14T10:19:02;29.30;28.10
4103;DHT22;2065;49.790;9.620;2023-06-14T10:21:36;29.60;28.20
4103;DHT22;2065;49.790;9.620;2023-06-14T10:24:07;29.20;28.40
4103;DHT22;2065;49.790;9.620;2023-06-14T10:26:35;28.90;28.40
4103;DHT22;2065;49.790;9.620;2023-06-14T10:29:08;29.00;28.50
4103;DHT22;2065;49.790;9.620;2023-06-14T10:31:43;29.30;27.70
4103;DHT22;2065;49.790;9.620;2023-06-14T10:34:11;29.60;27.60
4103;DHT22;2065;49.790;9.620;2023-06-14T10:36:41;29.80;27.50
4103;DHT22;2065;49.790;9.620;2023-06-14T10:39:14;30.00;26.40
4103;DHT22;2065;49.790;9.620;2023-06-14T10:41:42;29.80;26.80
4103;DHT22;2065;49.790;9.620;2023-06-14T10:44:39;29.60;27.50
4103;DHT22;2065;49.790;9.620;2023-06-14T10:47:10;29.70;27.10
4103;DHT22;2065;49.790;9.620;2023-06-14T10:49:42;29.90;27.10
4103;DHT22;2065;49.790;9.620;2023-06-14T10:52:10;30.10;27.30
4103;DHT22;2065;49.790;9.620;2023-06-14T10:55:05;30.30;26.90
4103;DHT22;2065;49.790;9.620;2023-06-14T10:57:35;30.00;26.10
4103;DHT22;2065;49.790;9.620;2023-06-14T11:00:04;29.50;27.30
4103;DHT22;2065;49.790;9.620;2023-06-14T11:02:52;29.90;26.50
4103;DHT22;2065;49.790;9.620;2023-06-14T11:05:24;29.70;26.30
4103;DHT22;2065;49.790;9.620;2023-06-14T11:08:26;29.60;26.90
4103;DHT22;2065;49.790;9.620;2023-06-14T11:10:54;29.20;26.50
4103;DHT22;2065;49.790;9.620;2023-06-14T11:13:24;28.80;28.10
4103;DHT22;2065;49.790;9.620;2023-06-14T11:15:52;28.70;27.00
4103;DHT22;2065;49.790;9.620;2023-06-14T11:18:22;28.80;26.90
4103;DHT22;2065;49.790;9.620;2023-06-14T11:20:50;29.10;26.80
4103;DHT22;2065;49.790;9.620;2023-06-14T11:23:17;29.60;25.80
4103;DHT22;2065;49.790;9.620;2023-06-14T11:25:49;29.50;26.40
4103;DHT22;2065;49.790;9.620;2023-06-14T11:28:16;29.40;26.30
4103;DHT22;2065;49.790;9.620;2023-06-14T11:30:45;29.40;26.40
4103;DHT22;2065;49.790;9.620;2023-06-14T11:33:17;29.20;27.10
4103;DHT22;2065;49.790;9.620;2023-06-14T11:35:46;29.30;27.30
4103;DHT22;2065;49.790;9.620;2023-06-14T11:38:13;29.00;26.60
4103;DHT22;2065;49.790;9.620;2023-06-14T11:40:40;28.90;27.50
4103;DHT22;2065;49.790;9.620;2023-06-14T11:43:07;29.20;26.90
4103;DHT22;2065;49.790;9.620;2023-06-14T11:45:34;29.30;26.00
4103;DHT22;2065;49.790;9.620;2023-06-14T11:48:03;29.70;26.40
4103;DHT22;2065;49.790;9.620;2023-06-14T11:50:30;29.70;26.00
4103;DHT22;2065;49.790;9.620;2023-06-14T11:53:00;29.30;27.30
4103;DHT22;2065;49.790;9.620;2023-06-14T11:55:35;29.70;26.90
4103;DHT22;2065;49.790;9.620;2023-06-14T11:58:02;30.10;26.60
4103;DHT22;2065;49.790;9.620;2023-06-14T12:00:29;30.60;25.50
4103;DHT22;2065;49.790;9.620;2023-06-14T12:02:57;30.80;24.80
4103;DHT22;2065;49.790;9.620;2023-06-14T12:05:24;30.40;25.30
4103;DHT22;2065;49.790;9.620;2023-06-14T12:07:58;30.60;26.10
4103;DHT22;2065;49.790;9.620;2023-06-14T12:10:27;30.70;24.80
4103;DHT22;2065;49.790;9.620;2023-06-14T12:12:57;30.30;24.90
4103;DHT22;2065;49.790;9.620;2023-06-14T12:15:27;30.00;26.00
4103;DHT22;2065;49.790;9.620;2023-06-14T12:17:55;29.90;25.30
4103;DHT22;2065;49.790;9.620;2023-06-14T12:20:22;29.70;26.50
4103;DHT22;2065;49.790;9.620;2023-06-14T12:22:53;29.60;26.10
4103;DHT22;2065;49.790;9.620;2023-06-14T12:25:29;29.90;26.00
4103;DHT22;2065;49.790;9.620;2023-06-14T12:27:58;30.20;25.50
4103;DHT22;2065;49.790;9.620;2023-06-14T12:30:25;30.60;25.50
4103;DHT22;2065;49.790;9.620;2023-06-14T12:32:52;30.70;25.00
4103;DHT22;2065;49.790;9.620;2023-06-14T12:35:19;30.70;24.50
4103;DHT22;2065;49.790;9.620;2023-06-14T12:37:46;30.60;25.30
4103;DHT22;2065;49.790;9.620;2023-06-14T12:40:14;30.60;25.10
4103;DHT22;2065;49.790;9.620;2023-06-14T12:42:45;30.70;25.60
4103;DHT22;2065;49.790;9.620;2023-06-14T12:45:13;30.70;24.60
4103;DHT22;2065;49.790;9.620;2023-06-14T12:47:40;30.70;25.00
4103;DHT22;2065;49.790;9.620;2023-06-14T12:50:08;31.00;24.90
4103;DHT22;2065;49.790;9.620;2023-06-14T12:52:35;30.70;24.70
4103;DHT22;2065;49.790;9.620;2023-06-14T12:55:03;30.20;25.00
4103;DHT22;2065;49.790;9.620;2023-06-14T12:57:31;29.80;25.50
4103;DHT22;2065;49.790;9.620;2023-06-14T13:00:01;29.60;25.10
4103;DHT22;2065;49.790;9.620;2023-06-14T13:02:28;29.60;25.30
4103;DHT22;2065;49.790;9.620;2023-06-14T13:04:55;29.50;25.20
4103;DHT22;2065;49.790;9.620;2023-06-14T13:07:24;29.30;25.50
4103;DHT22;2065;49.790;9.620;2023-06-14T13:09:51;29.50;25.30
4103;DHT22;2065;49.790;9.620;2023-06-14T13:12:18;29.70;25.50
4103;DHT22;2065;49.790;9.620;2023-06-14T13:14:45;30.00;24.70
4103;DHT22;2065;49.790;9.620;2023-06-14T13:17:14;30.20;25.20
4103;DHT22;2065;49.790;9.620;2023-06-14T13:19:41;30.30;25.20
4103;DHT22;2065;49.790;9.620;2023-06-14T13:22:08;30.60;25.00
4103;DHT22;2065;49.790;9.620;2023-06-14T13:24:36;31.00;23.80
4103;DHT22;2065;49.790;9.620;2023-06-14T13:27:03;31.10;24.00
4103;DHT22;2065;49.790;9.620;2023-06-14T13:29:31;31.00;23.80
4103;DHT22;2065;49.790;9.620;2023-06-14T13:31:59;30.60;24.50
4103;DHT22;2065;49.790;9.620;2023-06-14T13:34:27;30.60;24.50
4103;DHT22;2065;49.790;9.620;2023-06-14T13:36:54;30.50;24.10
4103;DHT22;2065;49.790;9.620;2023-06-14T13:39:21;30.20;23.80
4103;DHT22;2065;49.790;9.620;2023-06-14T13:41:49;30.00;24.10
4103;DHT22;2065;49.790;9.620;2023-06-14T13:44:16;30.10;24.90
4103;DHT22;2065;49.790;9.620;2023-06-14T13:46:44;30.50;24.80
4103;DHT22;2065;49.790;9.620;2023-06-14T13:49:11;30.70;24.10
4103;DHT22;2065;49.790;9.620;2023-06-14T13:51:39;30.80;23.80
4103;DHT22;2065;49.790;9.620;2023-06-14T13:54:06;30.80;24.20
4103;DHT22;2065;49.790;9.620;2023-06-14T13:56:34;30.90;24.00
4103;DHT22;2065;49.790;9.620;2023-06-14T13:59:00;31.10;24.10
4103;DHT22;2065;49.790;9.620;2023-06-14T14:01:27;31.10;23.90
4103;DHT22;2065;49.790;9.620;2023-06-14T14:03:54;31.10;24.30
4103;DHT22;2065;49.790;9.620;2023-06-14T14:06:21;31.10;23.30
4103;DHT22;2065;49.790;9.620;2023-06-14T14:08:50;31.00;24.00
4103;DHT22;2065;49.790;9.620;2023-06-14T14:11:18;30.80;22.50
4103;DHT22;2065;49.790;9.620;2023-06-14T14:13:46;30.70;23.10
4103;DHT22;2065;49.790;9.620;2023-06-14T14:16:13;30.40;24.40
4103;DHT22;2065;49.790;9.620;2023-06-14T14:18:40;30.20;24.40
4103;DHT22;2065;49.790;9.620;2023-06-14T14:21:07;30.20;24.30
4103;DHT22;2065;49.790;9.620;2023-06-14T14:23:35;30.20;24.10
4103;DHT22;2065;49.790;9.620;2023-06-14T14:26:03;30.20;24.50
4103;DHT22;2065;49.790;9.620;2023-06-14T14:28:30;30.50;24.10
4103;DHT22;2065;49.790;9.620;2023-06-14T14:30:58;30.80;23.30
4103;DHT22;2065;49.790;9.620;2023-06-14T14:33:25;31.00;23.20
4103;DHT22;2065;49.790;9.620;2023-06-14T14:35:52;31.40;23.30
4103;DHT22;2065;49.790;9.620;2023-06-14T14:38:19;31.70;22.60
4103;DHT22;2065;49.790;9.620;2023-06-14T14:40:46;31.50;22.90
4103;DHT22;2065;49.790;9.620;2023-06-14T14:43:14;31.70;22.60
4103;DHT22;2065;49.790;9.620;2023-06-14T14:45:41;31.60;22.50
4103;DHT22;2065;49.790;9.620;2023-06-14T14:48:08;31.70;22.50
4103;DHT22;2065;49.790;9.620;2023-06-14T14:50:35;31.80;23.10
4103;DHT22;2065;49.790;9.620;2023-06-14T14:53:02;31.90;22.80
4103;DHT22;2065;49.790;9.620;2023-06-14T14:55:29;31.80;22.10
4103;DHT22;2065;49.790;9.620;2023-06-14T14:57:56;31.30;22.90
4103;DHT22;2065;49.790;9.620;2023-06-14T15:00:24;31.10;23.00
4103;DHT22;2065;49.790;9.620;2023-06-14T15:02:51;31.40;23.40
4103;DHT22;2065;49.790;9.620;2023-06-14T15:05:18;31.50;22.80
4103;DHT22;2065;49.790;9.620;2023-06-14T15:07:45;31.50;22.70
4103;DHT22;2065;49.790;9.620;2023-06-14T15:10:13;31.40;22.40
4103;DHT22;2065;49.790;9.620;2023-06-14T15:12:40;31.10;23.00
4103;DHT22;2065;49.790;9.620;2023-06-14T15:15:08;31.10;22.80
4103;DHT22;2065;49.790;9.620;2023-06-14T15:17:39;31.20;23.30
4103;DHT22;2065;49.790;9.620;2023-06-14T15:20:07;31.10;22.80
4103;DHT22;2065;49.790;9.620;2023-06-14T15:22:34;31.30;23.40
4103;DHT22;2065;49.790;9.620;2023-06-14T15:25:01;31.30;22.70
4103;DHT22;2065;49.790;9.620;2023-06-14T15:27:28;31.30;22.50
4103;DHT22;2065;49.790;9.620;2023-06-14T15:29:55;31.00;22.60
4103;DHT22;2065;49.790;9.620;2023-06-14T15:32:22;31.10;23.20
4103;DHT22;2065;49.790;9.620;2023-06-14T15:34:50;31.00;23.10
4103;DHT22;2065;49.790;9.620;2023-06-14T15:37:17;30.90;23.20
4103;DHT22;2065;49.790;9.620;2023-06-14T15:39:44;31.10;22.60
4103;DHT22;2065;49.790;9.620;2023-06-14T15:42:11;31.30;22.80
4103;DHT22;2065;49.790;9.620;2023-06-14T15:44:38;31.10;22.90
4103;DHT22;2065;49.790;9.620;2023-06-14T15:47:07;31.00;23.10
4103;DHT22;2065;49.790;9.620;2023-06-14T15:49:35;30.80;23.80
4103;DHT22;2065;49.790;9.620;2023-06-14T15:52:04;30.70;23.80
4103;DHT22;2065;49.790;9.620;2023-06-14T15:54:31;30.50;24.00
4103;DHT22;2065;49.790;9.620;2023-06-14T15:56:58;30.30;24.50
4103;DHT22;2065;49.790;9.620;2023-06-14T15:59:25;30.30;24.60
4103;DHT22;2065;49.790;9.620;2023-06-14T16:01:54;30.40;25.30
4103;DHT22;2065;49.790;9.620;2023-06-14T16:04:21;30.50;24.50
4103;DHT22;2065;49.790;9.620;2023-06-14T16:06:47;30.50;24.70
4103;DHT22;2065;49.790;9.620;2023-06-14T16:09:16;30.30;24.40
4103;DHT22;2065;49.790;9.620;2023-06-14T16:11:43;30.00;24.70